Time;durP1;ratioP1;P1;durP2;ratioP2;P2;SDS_P1;SDS_P2;PMS_P1;PMS_P2;Temp;Humidity;BMP_temperature;BMP_pressure;BME280_temperature;BME280_humidity;BME280_pressure;Samples;Min_cycle;Max_cycle;Signal;HPM_P1;HPM_P2
2023/07/09 00:01:17;;;;;;;5.63;3.30;;;;;;;21.16;64.79;151341.72;4931469;28;20232;-60
2023/07/09 00:03:43;;;;;;;5.93;3.33;;;;;;;21.14;66.01;151335.47;4947203;28;20233;-60
2023/07/09 00:06:13;;;;;;;6.80;3.50;;;;;;;21.07;64.92;151320.44;4932579;28;20286;-60
2023/07/09 00:08:46;;;;;;;4.73;3.33;;;;;;;21.11;65.52;151329.19;4947897;28;20256;-60
2023/07/09 00:11:13;;;;;;;7.97;3.10;;;;;;;21.13;64.96;151334.19;4941202;28;20246;-60
2023/07/09 00:13:39;;;;;;;6.23;3.20;;;;;;;21.14;64.83;151335.47;4934944;28;20711;-60
2023/07/09 00:16:14;;;;;;;7.70;3.33;;;;;;;21.19;64.10;151348.00;4938953;28;20226;-60
2023/07/09 00:18:41;;;;;;;5.40;3.40;;;;;;;21.17;65.97;151343.00;4944172;28;20309;-60
2023/07/09 00:21:11;;;;;;;8.60;3.70;;;;;;;21.16;64.52;151341.72;4939148;28;20601;-60
2023/07/09 00:23:39;;;;;;;5.43;3.40;;;;;;;21.17;65.70;151343.00;4939943;28;20236;-60
2023/07/09 00:26:14;;;;;;;7.37;3.23;;;;;;;21.15;65.41;151337.97;4934818;28;20241;-60
2023/07/09 00:28:41;;;;;;;9.10;3.50;;;;;;;21.17;64.63;151343.00;4948546;28;20233;-60
2023/07/09 00:31:14;;;;;;;7.57;3.67;;;;;;;21.11;64.87;151327.94;4952929;28;20645;-60
2023/07/09 00:33:41;;;;;;;7.10;3.50;;;;;;;21.01;65.20;151305.38;4950461;28;20249;-60
2023/07/09 00:36:16;;;;;;;9.00;3.73;;;;;;;20.98;65.63;151297.88;4942079;28;20237;-60
2023/07/09 00:38:47;;;;;;;7.73;3.80;;;;;;;20.93;66.76;151286.56;4948053;28;20328;-60
2023/07/09 00:41:19;;;;;;;7.07;3.47;;;;;;;20.95;67.02;151290.34;4948579;28;20261;-60
2023/07/09 00:43:47;;;;;;;6.73;3.03;;;;;;;20.96;64.19;151292.84;4940898;28;20241;-60
2023/07/09 00:46:57;;;;;;;7.83;3.20;;;;;;;20.98;65.35;151296.59;4929738;28;20231;-60
2023/07/09 00:49:30;;;;;;;8.27;3.50;;;;;;;21.04;64.10;151312.91;4942747;28;20234;-60
2023/07/09 00:52:01;;;;;;;9.57;3.43;;;;;;;21.01;65.15;151305.38;4926752;28;20665;-60
2023/07/09 00:54:33;;;;;;;6.77;3.43;;;;;;;21.04;64.99;151311.63;4950237;28;20291;-60
2023/07/09 00:57:07;;;;;;;9.27;3.77;;;;;;;20.98;66.46;151297.88;4949290;28;20252;-60
2023/07/09 00:59:34;;;;;;;9.63;3.77;;;;;;;20.93;66.33;151286.56;4941829;28;20242;-60
2023/07/09 01:02:01;;;;;;;7.47;3.43;;;;;;;20.92;67.70;151282.81;4929669;28;20242;-60
2023/07/09 01:04:28;;;;;;;7.90;3.53;;;;;;;20.88;66.57;151272.78;4942891;28;20218;-60
2023/07/09 01:06:57;;;;;;;5.17;3.00;;;;;;;20.85;66.62;151265.28;4924580;28;20686;-60
2023/07/09 01:09:25;;;;;;;8.03;3.63;;;;;;;20.79;66.78;151252.75;4931082;28;20606;-60
2023/07/09 01:11:56;;;;;;;5.83;3.40;;;;;;;20.75;67.05;151242.69;4927227;28;20245;-59
2023/07/09 01:14:25;;;;;;;7.40;3.30;;;;;;;20.82;66.06;151257.75;4929221;28;20324;-60
2023/07/09 01:16:57;;;;;;;7.63;3.53;;;;;;;20.76;66.39;151243.91;4914078;29;20245;-59
2023/07/09 01:19:25;;;;;;;7.00;3.30;;;;;;;20.75;67.10;151242.69;4940818;28;20321;-61
2023/07/09 01:21:55;;;;;;;6.80;3.37;;;;;;;20.75;67.09;151241.41;4935207;28;20238;-61
2023/07/09 01:24:50;;;;;;;5.50;3.10;;;;;;;20.76;68.02;151243.91;4947909;28;20862;-60
2023/07/09 01:27:19;;;;;;;7.07;3.67;;;;;;;20.72;68.04;151235.16;4935384;28;20235;-60
2023/07/09 01:29:48;;;;;;;11.13;3.43;;;;;;;20.70;68.79;151228.88;4951367;28;20225;-60
2023/07/09 01:32:17;;;;;;;6.77;3.67;;;;;;;20.64;68.21;151215.09;4927420;28;20235;-61
2023/07/09 01:34:44;;;;;;;7.87;3.60;;;;;;;20.64;68.16;151216.38;4952415;28;20250;-60
2023/07/09 01:37:12;;;;;;;9.03;3.47;;;;;;;20.59;68.25;151203.84;4918469;28;20710;-60
2023/07/09 01:39:40;;;;;;;6.87;3.30;;;;;;;20.54;67.98;151190.03;4933491;28;20244;-60
2023/07/09 01:42:08;;;;;;;7.10;3.60;;;;;;;20.50;67.35;151182.53;4919365;28;20246;-60
2023/07/09 01:44:35;;;;;;;8.27;3.10;;;;;;;20.54;67.63;151190.03;4926497;28;20231;-60
2023/07/09 01:47:03;;;;;;;7.00;3.90;;;;;;;20.51;67.83;151183.78;4943555;28;20240;-60
2023/07/09 01:49:32;;;;;;;4.90;3.23;;;;;;;20.52;67.87;151186.31;4937424;28;20233;-60
2023/07/09 01:52:00;;;;;;;6.30;3.53;;;;;;;20.57;68.48;151198.84;4939032;28;20242;-60
2023/07/09 01:54:37;;;;;;;8.50;3.60;;;;;;;20.55;67.50;151192.53;4947011;28;20254;-61
2023/07/09 01:57:19;;;;;;;10.67;3.57;;;;;;;20.58;67.16;151201.34;4924091;28;20229;-61
2023/07/09 01:59:46;;;;;;;7.20;4.20;;;;;;;20.57;69.22;151197.56;4940285;28;20291;-61
2023/07/09 02:02:18;;;;;;;6.07;3.60;;;;;;;20.49;68.66;151178.78;4921858;28;20326;-61
2023/07/09 02:04:47;;;;;;;6.30;3.50;;;;;;;20.48;68.02;151177.50;4937019;28;20759;-61
2023/07/09 02:07:14;;;;;;;5.20;3.10;;;;;;;20.46;68.82;151171.25;4939592;28;20307;-60
2023/07/09 02:09:42;;;;;;;4.80;2.97;;;;;;;20.50;68.03;151182.53;4949717;28;20251;-60
2023/07/09 02:12:10;;;;;;;7.60;3.60;;;;;;;20.48;68.40;151176.28;4945618;28;20591;-60
2023/07/09 02:14:37;;;;;;;6.87;3.43;;;;;;;20.43;68.24;151163.75;4932341;28;20326;-60
2023/07/09 02:17:03;;;;;;;7.23;3.40;;;;;;;20.39;68.15;151154.94;4924814;28;20224;-60
2023/07/09 02:19:31;;;;;;;8.83;4.00;;;;;;;20.39;68.63;151154.94;4942503;28;21243;-60
2023/07/09 02:21:58;;;;;;;6.00;3.57;;;;;;;20.37;68.55;151148.72;4933227;28;20246;-61
2023/07/09 02:24:27;;;;;;;8.03;3.60;;;;;;;20.34;68.36;151142.41;4934225;28;20235;-60
2023/07/09 02:26:56;;;;;;;7.77;3.80;;;;;;;20.38;69.21;151152.44;4931338;28;20646;-60
2023/07/09 02:29:23;;;;;;;5.63;3.07;;;;;;;20.35;68.44;151144.94;4931797;28;20237;-60
2023/07/09 02:31:51;;;;;;;7.50;3.83;;;;;;;20.36;68.89;151147.44;4954732;28;20223;-60
2023/07/09 02:34:17;;;;;;;6.30;3.50;;;;;;;20.31;69.59;151136.19;4950595;28;20228;-60
2023/07/09 02:36:44;;;;;;;9.10;3.83;;;;;;;20.27;70.98;151126.16;4930407;28;20232;-60
2023/07/09 02:39:12;;;;;;;8.77;3.43;;;;;;;20.20;72.27;151109.84;4949321;28;20240;-60
2023/07/09 02:41:39;;;;;;;9.70;4.03;;;;;;;20.15;71.20;151097.31;4918165;29;20324;-60
2023/07/09 02:44:09;;;;;;;9.07;3.47;;;;;;;20.10;72.75;151084.84;4936691;28;20573;-60
2023/07/09 02:46:36;;;;;;;5.77;3.53;;;;;;;20.06;72.84;151076.03;4950381;28;20308;-60
2023/07/09 02:49:05;;;;;;;5.73;3.80;;;;;;;20.20;69.36;151108.63;4937896;28;20219;-60
2023/07/09 02:51:34;;;;;;;7.30;4.10;;;;;;;20.23;69.69;151114.84;4950680;28;20304;-60
2023/07/09 02:54:02;;;;;;;7.90;3.83;;;;;;;20.25;70.32;151119.88;4923404;28;20832;-60
2023/07/09 02:56:29;;;;;;;9.23;3.97;;;;;;;20.35;69.78;151144.94;4931616;28;20311;-60
2023/07/09 02:58:56;;;;;;;8.60;3.80;;;;;;;20.39;69.28;151153.72;4937238;28;20438;-60
2023/07/09 03:01:27;;;;;;;7.33;3.60;;;;;;;20.47;68.76;151175.00;4934832;28;20235;-60
2023/07/09 03:03:54;;;;;;;5.23;3.73;;;;;;;20.42;69.72;151162.47;4948378;28;20230;-60
2023/07/09 03:06:22;;;;;;;6.73;3.43;;;;;;;20.33;70.08;151139.91;4933567;28;20229;-61
2023/07/09 03:08:48;;;;;;;7.40;3.73;;;;;;;20.26;71.62;151122.38;4949784;28;20297;-61
2023/07/09 03:11:17;;;;;;;7.10;4.20;;;;;;;20.14;72.94;151094.81;4934732;28;31607;-60
2023/07/09 03:13:44;;;;;;;7.30;3.70;;;;;;;20.06;73.06;151074.81;4940122;28;20228;-60
2023/07/09 03:16:12;;;;;;;8.20;3.50;;;;;;;20.05;73.79;151072.31;4949042;28;20248;-61
2023/07/09 03:18:40;;;;;;;8.20;3.90;;;;;;;20.04;72.73;151071.03;4952209;28;20684;-61
2023/07/09 03:21:11;;;;;;;5.60;3.87;;;;;;;20.12;72.04;151089.84;4942752;28;20233;-61
2023/07/09 03:23:38;;;;;;;6.40;3.80;;;;;;;20.23;71.77;151114.84;4953718;28;20243;-61
2023/07/09 03:26:11;;;;;;;7.17;3.83;;;;;;;20.26;71.44;151123.66;4948490;28;20222;-61
2023/07/09 03:28:38;;;;;;;7.00;4.00;;;;;;;20.28;71.28;151127.38;4932136;28;20229;-60
2023/07/09 03:31:09;;;;;;;4.70;3.53;;;;;;;20.32;72.60;151137.41;5167578;23;20655;-60
2023/07/09 03:33:35;;;;;;;5.60;3.73;;;;;;;20.21;73.93;151112.34;4937476;28;20735;-60
2023/07/09 03:36:05;;;;;;;7.90;4.10;;;;;;;20.25;74.31;151119.88;4934595;28;20244;-60
2023/07/09 03:38:32;;;;;;;8.03;3.67;;;;;;;20.13;74.46;151091.06;4934014;28;20234;-60
2023/07/09 03:40:58;;;;;;;7.27;4.23;;;;;;;20.11;73.90;151086.06;4934377;28;20244;-61
2023/07/09 03:43:25;;;;;;;7.60;4.40;;;;;;;20.09;74.06;151082.34;4928281;28;20238;-60
2023/07/09 03:45:52;;;;;;;6.23;3.60;;;;;;;20.05;75.34;151073.53;4929941;28;20278;-61
2023/07/09 03:48:20;;;;;;;5.90;4.07;;;;;;;20.04;75.09;151071.03;4923329;28;20241;-61
2023/07/09 03:50:48;;;;;;;6.23;3.67;;;;;;;19.99;75.75;151058.50;4927693;28;20701;-61
2023/07/09 03:53:17;;;;;;;6.90;4.10;;;;;;;20.00;76.09;151061.00;4925164;28;20234;-61
2023/07/09 03:55:47;;;;;;;7.70;3.43;;;;;;;19.96;75.53;151051.00;4929354;28;20231;-61
2023/07/09 03:58:13;;;;;;;6.17;3.77;;;;;;;20.00;75.45;151061.00;4929103;28;20220;-61
2023/07/09 04:00:40;;;;;;;7.20;3.90;;;;;;;20.03;75.28;151067.28;4927863;28;20293;-62
2023/07/09 04:03:08;;;;;;;6.07;3.97;;;;;;;20.00;75.88;151061.00;4925909;28;20687;-62
2023/07/09 04:05:35;;;;;;;7.63;4.80;;;;;;;20.06;74.77;151074.81;4929772;28;20353;-62
2023/07/09 04:08:01;;;;;;;5.30;3.57;;;;;;;20.11;74.85;151087.34;4917615;28;20227;-62
2023/07/09 04:10:29;;;;;;;6.43;4.00;;;;;;;20.14;76.90;151094.81;4914276;29;20228;-62
2023/07/09 04:12:56;;;;;;;8.40;3.60;;;;;;;20.17;77.03;151102.31;4907836;29;20296;-63
2023/07/09 04:15:23;;;;;;;9.43;3.80;;;;;;;20.20;78.55;151109.84;4910307;29;20297;-63
2023/07/09 04:17:49;;;;;;;7.93;3.70;;;;;;;20.27;78.09;151126.16;4910577;29;20333;-63
2023/07/09 04:20:16;;;;;;;4.47;3.30;;;;;;;20.30;78.08;151133.69;4907992;29;20240;-63
2023/07/09 04:22:43;;;;;;;8.43;4.10;;;;;;;20.33;77.77;151141.19;4910668;29;20242;-63
2023/07/09 04:25:11;;;;;;;7.57;4.17;;;;;;;20.44;79.78;151166.25;4907991;29;20238;-63
2023/07/09 04:27:40;;;;;;;8.47;3.70;;;;;;;20.42;78.89;151162.47;4913381;28;20237;-63
2023/07/09 04:30:10;;;;;;;7.40;4.40;;;;;;;20.45;77.07;151170.00;4909188;29;20232;-63
2023/07/09 04:32:37;;;;;;;6.47;3.77;;;;;;;20.55;77.48;151193.81;4910895;29;20254;-63
2023/07/09 04:35:05;;;;;;;5.80;3.90;;;;;;;20.59;78.97;151203.84;4912855;29;20234;-63
2023/07/09 04:37:32;;;;;;;11.77;4.00;;;;;;;20.59;78.88;151202.56;4909061;29;20654;-63
2023/07/09 04:39:58;;;;;;;7.33;4.10;;;;;;;20.62;78.04;151211.38;4905507;29;20229;-63
2023/07/09 04:42:25;;;;;;;7.00;3.93;;;;;;;20.71;78.49;151231.38;4910602;29;20249;-63
2023/07/09 04:44:53;;;;;;;5.60;3.37;;;;;;;20.73;79.16;151236.38;4908828;29;20242;-63
2023/07/09 04:47:19;;;;;;;7.27;3.60;;;;;;;20.75;78.26;151242.69;4905950;29;20245;-63
2023/07/09 04:49:46;;;;;;;8.17;3.90;;;;;;;20.81;80.03;151256.47;4906126;29;20230;-63
2023/07/09 04:52:14;;;;;;;6.47;4.00;;;;;;;20.76;80.06;151243.91;4908092;29;20312;-63
2023/07/09 04:54:43;;;;;;;5.23;3.80;;;;;;;20.77;80.28;151247.72;4915362;29;21048;-63
2023/07/09 04:57:09;;;;;;;7.33;3.80;;;;;;;20.76;81.50;151243.91;4906595;29;20237;-63
2023/07/09 04:59:36;;;;;;;8.17;3.87;;;;;;;20.74;81.55;151240.16;4910387;29;20267;-63
2023/07/09 05:02:04;;;;;;;5.07;3.70;;;;;;;20.83;81.56;151260.25;4908469;29;20330;-63
2023/07/09 05:04:32;;;;;;;6.90;4.00;;;;;;;20.84;81.30;151262.78;4911330;29;20228;-63
2023/07/09 05:06:58;;;;;;;6.30;4.17;;;;;;;20.88;81.82;151274.03;4909060;29;20493;-63
2023/07/09 05:09:25;;;;;;;6.17;3.93;;;;;;;20.92;80.70;151284.06;4909368;29;20250;-63
2023/07/09 05:11:52;;;;;;;7.23;4.80;;;;;;;20.96;81.96;151291.56;4909320;29;20606;-63
2023/07/09 05:14:19;;;;;;;7.37;4.23;;;;;;;20.97;81.37;151295.38;4905228;29;20239;-63
2023/07/09 05:16:46;;;;;;;7.53;3.83;;;;;;;21.01;80.09;151305.38;4911554;29;20787;-63
2023/07/09 05:19:14;;;;;;;7.40;4.17;;;;;;;21.09;79.20;151324.16;4907734;29;20303;-63
2023/07/09 05:21:41;;;;;;;5.23;4.10;;;;;;;21.13;79.13;151334.19;4910459;29;20231;-63
2023/07/09 05:24:07;;;;;;;8.70;4.27;;;;;;;21.17;79.14;151343.00;4909523;29;20243;-63
2023/07/09 05:26:34;;;;;;;6.10;4.20;;;;;;;21.21;78.93;151354.25;4915215;29;20300;-63
2023/07/09 05:29:01;;;;;;;6.07;3.97;;;;;;;21.23;78.31;151359.28;4910752;28;20339;-63
2023/07/09 05:31:27;;;;;;;6.60;4.20;;;;;;;21.30;79.45;151374.31;4913015;29;20243;-63
2023/07/09 05:33:54;;;;;;;6.63;3.50;;;;;;;21.34;80.04;151385.56;4911359;29;20242;-63
2023/07/09 05:36:22;;;;;;;7.83;3.93;;;;;;;21.37;80.01;151391.88;4926774;28;20230;-63
2023/07/09 05:38:49;;;;;;;5.60;3.63;;;;;;;21.42;80.69;151403.13;4928739;28;20242;-63
2023/07/09 05:41:17;;;;;;;5.23;4.10;;;;;;;21.46;80.44;151414.44;4918282;28;21021;-63
2023/07/09 05:43:44;;;;;;;7.27;3.70;;;;;;;21.56;79.46;151437.00;4918274;29;20419;-63
2023/07/09 05:46:13;;;;;;;5.03;3.60;;;;;;;21.59;79.33;151444.53;4924912;28;20230;-63
2023/07/09 05:48:40;;;;;;;6.67;4.33;;;;;;;21.80;78.75;151497.19;4927990;28;20231;-63
2023/07/09 05:51:12;;;;;;;5.70;3.80;;;;;;;22.01;78.41;151546.13;4925862;28;20231;-63
2023/07/09 05:53:40;;;;;;;4.77;3.23;;;;;;;22.24;76.19;151602.53;4927862;28;20279;-63
2023/07/09 05:56:11;;;;;;;6.67;4.10;;;;;;;22.48;75.59;151660.28;4923648;28;20322;-63
2023/07/09 05:58:38;;;;;;;7.03;3.77;;;;;;;22.67;74.34;151707.94;4927105;28;20237;-63
2023/07/09 06:01:30;;;;;;;8.93;4.00;;;;;;;22.92;73.04;151766.91;4926726;28;20269;-63
2023/07/09 06:03:57;;;;;;;8.77;4.23;;;;;;;23.11;72.79;151814.56;4921323;28;20238;-63
2023/07/09 06:06:23;;;;;;;5.30;3.60;;;;;;;23.28;72.77;151856.00;4929564;28;20635;-63
2023/07/09 06:08:51;;;;;;;6.67;3.60;;;;;;;23.46;72.49;151897.41;4930461;28;20281;-63
2023/07/09 06:11:18;;;;;;;9.53;3.30;;;;;;;23.61;69.03;151933.84;4924062;28;20250;-63
2023/07/09 06:13:45;;;;;;;5.77;3.30;;;;;;;23.82;68.76;151985.28;4926333;28;20306;-63
2023/07/09 06:16:11;;;;;;;6.87;3.73;;;;;;;23.98;68.08;152025.44;4927262;28;20709;-63
2023/07/09 06:18:38;;;;;;;7.07;3.80;;;;;;;24.10;66.44;152054.34;4928183;28;20813;-63
2023/07/09 06:21:30;;;;;;;7.20;3.80;;;;;;;24.28;66.56;152097.03;4924916;28;21128;-63
2023/07/09 06:23:58;;;;;;;6.60;3.87;;;;;;;24.30;65.31;152103.34;4924408;28;20289;-63
2023/07/09 06:26:24;;;;;;;13.00;4.33;;;;;;;24.38;65.87;152122.16;4927550;28;20281;-63
2023/07/09 06:28:51;;;;;;;10.53;5.13;;;;;;;24.24;65.85;152087.00;4927860;28;20219;-63
2023/07/09 06:31:18;;;;;;;8.60;4.87;;;;;;;24.34;66.08;152112.09;4923938;28;20252;-63
2023/07/09 06:33:45;;;;;;;8.30;4.93;;;;;;;24.52;65.64;152154.78;4927945;28;20298;-63
2023/07/09 06:36:12;;;;;;;8.40;4.60;;;;;;;24.67;64.91;152191.19;4923698;28;20711;-63
2023/07/09 06:38:38;;;;;;;8.87;4.80;;;;;;;24.74;64.00;152208.81;4928644;28;20769;-63
2023/07/09 06:41:32;;;;;;;8.23;5.07;;;;;;;24.93;64.01;152254.03;4928400;28;20283;-63
2023/07/09 06:43:58;;;;;;;8.63;4.73;;;;;;;25.10;64.14;152296.75;4928068;28;20228;-63
2023/07/09 06:46:25;;;;;;;8.17;4.80;;;;;;;25.20;64.36;152321.88;4933374;28;20306;-63
2023/07/09 06:48:52;;;;;;;7.90;4.63;;;;;;;25.27;65.17;152336.94;4930036;28;20239;-63
2023/07/09 06:51:18;;;;;;;6.75;4.80;;;;;;;25.41;65.14;152372.13;4929707;28;20247;-63
2023/07/09 06:53:47;;;;;;;6.43;4.37;;;;;;;25.52;65.01;152397.25;4932585;28;20236;-63
2023/07/09 06:56:14;;;;;;;4.83;3.40;;;;;;;25.63;64.30;152426.16;4928438;28;20601;-63
2023/07/09 06:58:42;;;;;;;4.90;3.53;;;;;;;25.80;64.91;152466.38;4931291;28;20225;-63
2023/07/09 07:01:11;;;;;;;8.03;4.17;;;;;;;25.94;64.45;152500.28;4927906;28;20296;-62
2023/07/09 07:03:38;;;;;;;5.35;3.75;;;;;;;26.06;63.38;152530.44;4929823;29;20326;-62
2023/07/09 07:06:06;;;;;;;9.00;4.47;;;;;;;26.22;60.95;152568.19;4929142;28;20283;-62
2023/07/09 07:08:34;;;;;;;7.57;4.38;;;;;;;26.34;59.99;152597.09;4929998;28;20238;-63
2023/07/09 07:11:02;;;;;;;6.55;3.90;;;;;;;26.43;61.81;152619.69;4928347;28;20684;-63
2023/07/09 07:13:29;;;;;;;5.73;3.77;;;;;;;26.55;62.21;152648.59;4928564;28;20230;-63
2023/07/09 07:15:57;;;;;;;7.25;4.00;;;;;;;26.68;60.80;152680.03;4915283;28;20333;-63
2023/07/09 07:18:24;;;;;;;7.60;4.22;;;;;;;26.75;59.92;152696.34;4921800;28;20594;-63
2023/07/09 07:20:51;;;;;;;6.53;4.30;;;;;;;26.77;60.15;152702.66;4931915;28;20241;-63
2023/07/09 07:23:18;;;;;;;7.53;3.78;;;;;;;26.94;60.35;152742.94;4928393;28;20259;-63
2023/07/09 07:25:45;;;;;;;5.93;4.38;;;;;;;27.02;58.24;152761.78;4933003;28;20222;-63
2023/07/09 07:28:12;;;;;;;6.05;4.60;;;;;;;27.04;56.06;152768.06;4929312;28;20275;-63
2023/07/09 07:30:39;;;;;;;8.95;4.32;;;;;;;27.03;54.80;152764.31;4931201;28;20224;-64
2023/07/09 07:33:07;;;;;;;10.70;5.20;;;;;;;26.93;55.10;152740.44;4925655;28;20598;-63
2023/07/09 07:35:33;;;;;;;6.03;4.20;;;;;;;26.86;55.25;152724.06;4931049;28;20253;-63
2023/07/09 07:38:00;;;;;;;9.60;4.72;;;;;;;26.84;56.11;152717.81;4928186;28;20288;-63
2023/07/09 07:40:27;;;;;;;7.05;5.03;;;;;;;26.73;55.02;152691.34;4931326;28;20630;-63
2023/07/09 07:42:53;;;;;;;8.23;4.88;;;;;;;26.88;56.04;152727.88;4928841;28;20237;-63
2023/07/09 07:45:20;;;;;;;9.60;4.70;;;;;;;27.05;53.97;152770.56;4927119;28;20245;-63
2023/07/09 07:47:46;;;;;;;10.40;5.13;;;;;;;27.01;53.58;152760.56;4927552;28;20678;-63
2023/07/09 07:50:14;;;;;;;8.15;5.00;;;;;;;26.96;53.86;152747.97;4927811;28;20224;-63
2023/07/09 07:52:41;;;;;;;8.27;4.72;;;;;;;26.86;54.80;152724.06;4930819;28;20297;-63
2023/07/09 07:55:09;;;;;;;7.68;4.93;;;;;;;27.12;54.14;152786.94;4926588;28;20315;-63
2023/07/09 07:57:36;;;;;;;11.40;5.13;;;;;;;27.04;55.14;152766.81;4931186;28;20281;-63
2023/07/09 08:00:03;;;;;;;9.93;5.47;;;;;;;27.19;55.16;152804.53;4926068;28;20233;-63
2023/07/09 08:02:38;;;;;;;9.13;4.90;;;;;;;27.39;53.45;152853.56;4931660;28;20240;-63
2023/07/09 08:05:06;;;;;;;7.35;5.28;;;;;;;27.42;52.56;152859.88;4928237;28;20242;-63
2023/07/09 08:07:34;;;;;;;7.53;5.03;;;;;;;27.43;52.08;152862.38;4930300;28;20240;-63
2023/07/09 08:10:01;;;;;;;8.13;5.00;;;;;;;27.47;53.43;152871.16;4926995;28;20224;-63
2023/07/09 08:12:27;;;;;;;7.97;5.10;;;;;;;27.58;52.79;152898.88;4930506;28;20662;-63
2023/07/09 08:14:54;;;;;;;10.45;4.88;;;;;;;27.74;50.29;152937.84;4930146;28;20229;-63
2023/07/09 08:17:20;;;;;;;8.45;4.95;;;;;;;27.69;51.54;152926.56;4929233;28;20297;-63
2023/07/09 08:19:48;;;;;;;9.82;4.90;;;;;;;27.55;51.79;152891.34;4931381;28;20611;-63
2023/07/09 08:22:16;;;;;;;7.28;5.05;;;;;;;27.45;50.48;152866.13;4927851;28;20302;-63
2023/07/09 08:24:44;;;;;;;7.30;4.40;;;;;;;27.56;50.90;152893.84;4930712;28;20288;-63
2023/07/09 08:27:11;;;;;;;10.00;5.03;;;;;;;27.47;50.02;152871.16;4932144;28;20295;-63
2023/07/09 08:29:37;;;;;;;6.53;4.30;;;;;;;27.63;49.56;152911.44;4930118;28;20264;-63
2023/07/09 08:32:05;;;;;;;6.85;4.65;;;;;;;27.70;49.15;152929.06;4925537;28;20719;-63
2023/07/09 08:34:32;;;;;;;10.60;4.72;;;;;;;27.84;48.90;152963.00;4927658;29;20239;-63
2023/07/09 08:36:58;;;;;;;7.28;4.30;;;;;;;27.97;49.04;152993.19;4926210;28;20237;-63
2023/07/09 08:39:25;;;;;;;6.03;4.80;;;;;;;28.13;49.17;153032.22;4929157;29;20241;-63
2023/07/09 08:42:07;;;;;;;8.50;4.75;;;;;;;28.06;48.57;153015.84;4928408;28;20236;-63
2023/07/09 08:45:04;;;;;;;5.85;4.40;;;;;;;28.36;47.12;153087.56;4923624;28;20282;-63
2023/07/09 08:47:40;;;;;;;8.90;4.57;;;;;;;28.40;47.54;153097.63;4925417;28;20232;-63
2023/07/09 08:50:13;;;;;;;10.75;5.07;;;;;;;28.41;48.99;153101.44;4927305;28;20282;-63
2023/07/09 08:52:42;;;;;;;11.40;4.85;;;;;;;28.40;48.69;153097.63;4926729;28;20232;-63
2023/07/09 08:55:13;;;;;;;7.88;4.38;;;;;;;28.55;48.24;153134.13;4926091;28;20631;-63
2023/07/09 08:57:43;;;;;;;6.70;5.28;;;;;;;28.72;47.13;153176.88;4930753;28;20720;-63
2023/07/09 09:00:17;;;;;;;7.30;4.60;;;;;;;28.75;46.45;153183.19;4927062;28;20237;-63
2023/07/09 09:02:50;;;;;;;11.25;5.18;;;;;;;28.82;46.53;153199.56;4922096;28;20230;-63
2023/07/09 09:05:20;;;;;;;8.68;4.72;;;;;;;29.02;45.76;153249.91;4908809;28;20234;-63
2023/07/09 09:07:53;;;;;;;7.88;4.53;;;;;;;29.06;45.89;153257.47;4927424;28;20225;-63
2023/07/09 09:10:28;;;;;;;8.27;4.68;;;;;;;29.12;44.24;153273.84;4927025;28;20242;-63
2023/07/09 09:13:06;;;;;;;5.82;4.20;;;;;;;29.22;43.14;153296.44;4927742;28;20244;-63
2023/07/09 09:15:33;;;;;;;6.05;4.32;;;;;;;29.24;43.79;153301.47;4926504;28;20242;-63
2023/07/09 09:18:23;;;;;;;6.93;4.53;;;;;;;29.22;44.81;153296.44;4915939;28;20214;-63
2023/07/09 09:20:56;;;;;;;6.05;4.70;;;;;;;29.39;44.71;153338.06;4924142;28;20287;-63
2023/07/09 09:23:26;;;;;;;6.65;4.32;;;;;;;29.49;44.38;153361.94;4906566;29;20274;-63
2023/07/09 09:25:55;;;;;;;9.50;4.78;;;;;;;29.59;44.37;153387.13;4910313;29;20789;-63
2023/07/09 09:28:25;;;;;;;6.25;4.82;;;;;;;29.64;45.65;153399.72;4921434;28;20257;-64
2023/07/09 09:30:51;;;;;;;7.80;4.75;;;;;;;29.74;44.97;153423.63;4929161;28;20566;-63
2023/07/09 09:33:19;;;;;;;7.60;4.50;;;;;;;29.89;44.22;153460.16;4924586;28;20650;-63
2023/07/09 09:35:48;;;;;;;7.68;4.82;;;;;;;29.86;44.18;153453.81;4931275;28;20242;-65
2023/07/09 09:38:18;;;;;;;8.32;4.43;;;;;;;30.04;43.68;153496.69;4927148;28;20250;-63
2023/07/09 09:40:45;;;;;;;9.32;4.35;;;;;;;30.09;44.91;153508.03;4929683;28;20222;-63
2023/07/09 09:43:14;;;;;;;8.82;4.95;;;;;;;30.22;42.50;153539.50;4926800;28;20234;-63
2023/07/09 09:45:45;;;;;;;8.05;4.47;;;;;;;30.18;42.46;153530.72;4928556;28;20239;-63
2023/07/09 09:48:16;;;;;;;5.70;4.68;;;;;;;30.24;42.13;153545.75;4924270;28;20246;-63
2023/07/09 09:50:43;;;;;;;6.88;4.90;;;;;;;30.36;43.10;153574.75;4928609;28;20242;-63
2023/07/09 09:53:10;;;;;;;7.22;4.07;;;;;;;30.57;40.93;153626.38;4926925;28;20227;-63
2023/07/09 09:55:40;;;;;;;6.25;4.63;;;;;;;30.46;41.66;153599.94;4928217;28;20237;-63
2023/07/09 09:58:14;;;;;;;9.30;4.63;;;;;;;30.66;41.96;153646.56;4926336;28;20234;-63
2023/07/09 10:00:40;;;;;;;6.90;4.68;;;;;;;30.90;39.87;153705.72;4930622;28;20316;-63
2023/07/09 10:03:10;;;;;;;6.15;4.28;;;;;;;31.05;38.52;153743.53;4923995;28;20286;-63
2023/07/09 10:05:44;;;;;;;9.57;4.68;;;;;;;31.18;37.75;153773.81;4927898;29;20219;-63
2023/07/09 10:08:18;;;;;;;9.00;4.85;;;;;;;31.18;39.40;153775.09;4925781;28;21504;-63
2023/07/09 10:10:47;;;;;;;7.53;4.45;;;;;;;31.14;37.73;153764.97;4929197;28;20230;-63
2023/07/09 10:13:22;;;;;;;6.93;4.60;;;;;;;31.32;38.70;153809.06;4922167;29;20639;-63
2023/07/09 10:16:02;;;;;;;5.95;4.15;;;;;;;31.39;36.18;153825.44;4930304;28;20234;-63
2023/07/09 10:18:39;;;;;;;7.68;5.07;;;;;;;31.44;37.14;153836.78;4922644;28;20245;-64
2023/07/09 10:21:16;;;;;;;8.10;4.68;;;;;;;31.66;36.41;153890.94;4928652;28;20223;-64
2023/07/09 10:23:53;;;;;;;6.68;4.40;;;;;;;31.44;35.78;153836.78;4933022;28;20227;-64
2023/07/09 10:26:27;;;;;;;6.82;5.18;;;;;;;31.57;37.78;153869.56;4920137;28;20840;-64
2023/07/09 10:29:18;;;;;;;6.53;4.70;;;;;;;31.73;37.44;153907.34;4911377;29;20243;-63
2023/07/09 10:31:51;;;;;;;8.65;4.22;;;;;;;31.77;37.36;153917.47;4928997;28;20246;-63
2023/07/09 10:34:27;;;;;;;6.70;4.57;;;;;;;32.02;36.42;153977.91;4927736;28;20227;-63
2023/07/09 10:37:20;;;;;;;6.90;4.20;;;;;;;32.06;37.16;153988.00;4933480;28;20291;-63
2023/07/09 10:39:50;;;;;;;5.82;4.47;;;;;;;32.11;37.23;154000.59;4929124;28;20234;-63
2023/07/09 10:42:24;;;;;;;6.03;5.03;;;;;;;32.14;37.32;154008.16;4920923;28;20722;-63
2023/07/09 10:44:57;;;;;;;6.85;4.72;;;;;;;32.35;36.94;154058.63;4927104;28;20275;-63
2023/07/09 10:47:31;;;;;;;9.43;5.03;;;;;;;32.28;37.49;154040.94;4930759;28;20783;-63
2023/07/09 10:50:03;;;;;;;5.55;4.70;;;;;;;32.15;37.08;154009.44;4927831;28;20233;-64
2023/07/09 10:52:34;;;;;;;6.90;4.45;;;;;;;32.21;36.38;154024.56;4931509;28;20368;-63
2023/07/09 10:55:05;;;;;;;7.20;4.65;;;;;;;32.22;36.93;154028.31;4925841;28;20239;-63
2023/07/09 10:57:45;;;;;;;7.30;4.72;;;;;;;32.15;37.37;154010.69;4934020;28;20229;-63
2023/07/09 11:00:18;;;;;;;8.48;5.13;;;;;;;32.10;37.30;153998.06;4930030;28;20250;-63
2023/07/09 11:02:46;;;;;;;10.30;4.53;;;;;;;32.21;36.71;154025.81;4929032;28;20223;-63
2023/07/09 11:05:14;;;;;;;8.75;4.40;;;;;;;32.19;38.28;154019.53;4925982;28;20239;-63
2023/07/09 11:07:46;;;;;;;7.88;5.07;;;;;;;32.44;37.42;154081.31;4929297;28;20297;-63
2023/07/09 11:10:22;;;;;;;9.63;4.50;;;;;;;32.61;36.11;154122.88;4926939;28;20289;-63
2023/07/09 11:12:58;;;;;;;9.15;4.93;;;;;;;32.71;36.08;154146.84;4925223;28;20281;-63
2023/07/09 11:15:31;;;;;;;8.20;4.95;;;;;;;32.91;35.53;154194.75;4928316;28;20246;-63
2023/07/09 11:17:59;;;;;;;12.95;4.68;;;;;;;32.92;35.51;154198.56;4926594;28;20243;-63
2023/07/09 11:20:33;;;;;;;8.00;4.72;;;;;;;33.01;35.84;154219.97;4932083;29;20261;-63
2023/07/09 11:23:03;;;;;;;8.50;4.95;;;;;;;33.17;35.21;154259.06;4927022;28;20229;-63
2023/07/09 11:25:41;;;;;;;9.32;4.70;;;;;;;33.31;34.62;154293.09;4930283;29;20297;-63
2023/07/09 11:28:09;;;;;;;8.73;4.88;;;;;;;33.11;35.57;154243.94;4926238;28;20540;-63
2023/07/09 11:30:47;;;;;;;6.15;4.60;;;;;;;33.43;35.84;154322.13;4930649;29;20309;-63
2023/07/09 11:33:18;;;;;;;9.85;4.68;;;;;;;33.35;34.09;154303.19;4928389;28;20242;-63
2023/07/09 11:35:50;;;;;;;6.72;4.78;;;;;;;33.81;34.10;154414.19;4931453;29;20227;-63